.
WxDataArchive / Data Records for 2013-03-18
2013-03-17 March 2013 2013-03-19

Data Records for Monday, 18 March 2013

Time	Temp	Chill	HIndex	Humid	Dewpt	 Wind 	HiWind	WindDir	Rain 	Barom 
-----	----	-----	------	-----	-----	------	------	-------	-----	----- 
00:00	27.5	20.1	27.5	73	20.0	7	15	90	0.00	30.109 
00:05	27.3	21.6	27.3	74	20.1	5	12	90	0.00	30.109 
00:10	27.3	21.6	27.3	74	20.1	5	13	112	0.00	30.109 
00:15	27.3	19.1	27.3	74	20.1	8	15	90	0.00	30.105 
00:20	27.3	19.8	27.3	74	20.1	7	16	90	0.00	30.105 
00:25	27.3	19.1	27.3	74	20.1	8	17	90	0.00	30.105 
00:30	27.3	20.6	27.3	74	20.1	6	13	90	0.00	30.098 
00:35	27.3	22.6	27.3	75	20.4	4	13	90	0.00	30.098 
00:40	27.3	20.6	27.3	74	20.1	6	15	90	0.00	30.098 
00:45	27.3	21.6	27.3	75	20.4	5	10	90	0.00	30.096 
00:50	27.3	20.6	27.3	75	20.4	6	13	90	0.00	30.096 
00:55	27.3	21.6	27.3	75	20.4	5	12	90	0.00	30.096 
01:00	27.3	19.1	27.3	75	20.4	8	14	90	0.00	30.089 
01:05	27.3	19.1	27.3	76	20.8	8	17	90	0.00	30.089 
01:10	27.3	19.8	27.3	76	20.8	7	17	90	0.00	30.089 
01:15	27.3	19.8	27.3	76	20.8	7	13	90	0.00	30.075 
01:20	27.3	20.6	27.3	77	21.1	6	13	90	0.00	30.075 
01:25	27.3	21.6	27.3	77	21.1	5	10	90	0.00	30.075 
01:30	27.3	19.8	27.3	77	21.1	7	14	90	0.00	30.074 
01:35	27.3	20.6	27.3	77	21.1	6	15	90	0.00	30.074 
01:40	27.5	20.9	27.5	77	21.3	6	15	90	0.00	30.074 
01:45	27.5	20.1	27.5	77	21.3	7	15	90	0.00	30.070 
01:50	27.5	20.9	27.5	77	21.3	6	14	90	0.00	30.070 
01:55	27.5	19.4	27.5	77	21.3	8	15	112	0.00	30.070 
02:00	27.5	20.9	27.5	77	21.3	6	11	90	0.00	30.059 
02:05	27.5	21.8	27.5	77	21.3	5	13	90	0.00	30.059 
02:10	27.6	21.9	27.6	77	21.4	5	11	90	0.00	30.059 
02:15	27.6	21.9	27.6	77	21.4	5	11	90	0.00	30.048 
02:20	27.6	21.9	27.6	77	21.4	5	13	90	0.00	30.048 
02:25	27.6	21.0	27.6	77	21.4	6	13	90	0.00	30.048 
02:30	27.6	21.9	27.6	77	21.4	5	13	90	0.00	30.035 
02:35	27.8	22.1	27.8	77	21.5	5	12	112	0.00	30.035 
02:40	27.8	21.2	27.8	76	21.2	6	16	112	0.00	30.035 
02:45	27.9	22.3	27.9	76	21.3	5	12	90	0.00	30.027 
02:50	27.9	22.3	27.9	76	21.3	5	12	112	0.00	30.027 
02:55	27.9	22.3	27.9	76	21.3	5	16	90	0.00	30.027 
03:00	27.9	22.3	27.9	77	21.6	5	13	90	0.00	30.013 
03:05	27.9	21.3	27.9	77	21.6	6	12	90	0.00	30.013 
03:10	27.9	22.3	27.9	77	21.6	5	10	90	0.00	30.013 
03:15	27.9	22.3	27.9	77	21.6	5	18	90	0.00	29.997 
03:20	28.1	22.5	28.1	77	21.8	5	13	90	0.00	29.997 
03:25	28.1	21.6	28.1	76	21.5	6	12	90	0.00	29.997 
03:30	28.1	22.5	28.1	76	21.5	5	14	90	0.00	29.989 
03:35	28.2	22.6	28.2	76	21.6	5	12	112	0.00	29.989 
03:40	28.2	21.7	28.2	76	21.6	6	13	112	0.00	29.989 
03:45	28.4	21.9	28.4	75	21.5	6	14	90	0.00	29.978 
03:50	28.4	21.2	28.4	75	21.5	7	13	90	0.00	29.978 
03:55	28.4	21.2	28.4	75	21.5	7	17	90	0.00	29.978 
04:00	28.4	21.2	28.4	75	21.5	7	15	90	0.00	29.972 
04:05	28.4	21.9	28.4	75	21.5	6	13	90	0.00	29.972 
04:10	28.5	22.1	28.5	75	21.6	6	13	90	0.00	29.972 
04:15	28.5	21.3	28.5	76	21.9	7	14	90	0.00	29.966 
04:20	28.4	21.9	28.4	77	22.1	6	16	90	0.00	29.966 
04:25	28.2	20.9	28.2	78	22.2	7	15	90	0.00	29.966 
04:30	28.1	21.6	28.1	80	22.7	6	13	90	0.00	29.950 
04:35	27.9	22.3	27.9	82	23.1	5	14	90	0.00	29.950 
04:40	27.8	21.2	27.8	83	23.3	6	14	90	0.00	29.950 
04:45	27.6	21.0	27.6	84	23.4	6	11	90	0.00	29.934 
04:50	27.5	21.8	27.5	85	23.6	5	11	90	0.00	29.934 
04:55	27.5	22.9	27.5	86	23.9	4	11	112	0.00	29.934 
05:00	27.3	20.6	27.3	86	23.7	6	13	90	0.00	29.933 
05:05	27.5	21.8	27.5	86	23.9	5	13	90	0.00	29.933 
05:10	27.5	22.9	27.5	86	23.9	4	11	90	0.00	29.933 
05:15	27.6	21.9	27.6	86	24.0	5	10	90	0.00	29.908 
05:20	27.6	21.9	27.6	86	24.0	5	14	90	0.00	29.908 
05:25	27.6	21.9	27.6	86	24.0	5	13	112	0.00	29.908 
05:30	27.6	21.0	27.6	86	24.0	6	14	90	0.00	29.890 
05:35	27.8	22.1	27.8	86	24.2	5	13	90	0.00	29.890 
05:40	27.9	22.3	27.9	86	24.3	5	14	112	0.00	29.890 
05:45	28.1	21.6	28.1	87	24.7	6	13	112	0.00	29.886 
05:50	28.4	22.8	28.4	87	25.0	5	13	112	0.00	29.886 
05:55	28.4	22.8	28.4	87	25.0	5	12	112	0.00	29.886 
06:00	28.5	22.1	28.5	87	25.1	6	13	90	0.00	29.854 
06:05	28.5	23.0	28.5	87	25.1	5	13	90	0.00	29.854 
06:10	28.5	23.0	28.5	87	25.1	5	14	90	0.00	29.854 
06:15	28.5	24.0	28.5	87	25.1	4	11	90	0.00	29.851 
06:20	28.5	23.0	28.5	87	25.1	5	12	90	0.00	29.851 
06:25	28.7	24.3	28.7	87	25.3	4	10	112	0.00	29.851 
06:30	28.7	22.3	28.7	87	25.3	6	12	90	0.00	29.853 
06:35	28.5	23.0	28.5	87	25.1	5	10	90	0.00	29.853 
06:40	28.5	24.0	28.5	87	25.1	4	11	90	0.00	29.853 
06:45	28.5	23.0	28.5	87	25.1	5	11	90	0.00	29.852 
06:50	28.5	28.5	28.5	87	25.1	3	10	90	0.00	29.852 
06:55	28.5	23.0	28.5	87	25.1	5	12	90	0.00	29.852 
07:00	28.5	23.0	28.5	87	25.1	5	12	90	0.00	29.841 
07:05	28.5	23.0	28.5	87	25.1	5	13	90	0.00	29.841 
07:10	28.7	28.7	28.7	88	25.6	3	10	90	0.00	29.841 
07:15	28.7	22.3	28.7	88	25.6	6	16	90	0.00	29.842 
07:20	28.7	23.2	28.7	88	25.6	5	11	90	0.00	29.842 
07:25	28.7	23.2	28.7	88	25.6	5	11	90	0.00	29.842 
07:30	28.8	24.4	28.8	88	25.7	4	12	112	0.00	29.835 
07:35	28.8	24.4	28.8	89	26.0	4	7	112	0.00	29.835 
07:40	28.8	24.4	28.8	89	26.0	4	10	90	0.00	29.835 
07:45	28.8	24.4	28.8	89	26.0	4	10	112	0.00	29.826 
07:50	28.8	23.3	28.8	89	26.0	5	11	112	0.00	29.826 
07:55	28.8	24.4	28.8	89	26.0	4	10	112	0.00	29.826 
08:00	28.8	28.8	28.8	90	26.2	3	11	112	0.00	29.825 
08:05	28.8	24.4	28.8	90	26.2	4	11	90	0.00	29.825 
08:10	28.8	23.3	28.8	90	26.2	5	13	90	0.00	29.825 
08:15	28.8	28.8	28.8	90	26.2	3	9	90	0.00	29.825 
08:20	29.0	24.6	29.0	90	26.4	4	10	112	0.00	29.825 
08:25	29.0	29.0	29.0	90	26.4	3	10	112	0.00	29.825 
08:30	29.1	24.7	29.1	90	26.5	4	10	112	0.00	29.818 
08:35	29.3	25.0	29.3	90	26.7	4	10	90	0.00	29.818 
08:40	29.3	25.0	29.3	90	26.7	4	11	90	0.00	29.818 
08:45	29.4	29.4	29.4	90	26.8	3	9	90	0.00	29.808 
08:50	29.4	29.4	29.4	90	26.8	2	6	90	0.00	29.808 
08:55	29.4	25.1	29.4	91	27.1	4	10	90	0.00	29.808 
09:00	29.5	29.5	29.5	91	27.2	3	10	112	0.00	29.795 
09:05	29.7	25.4	29.7	91	27.4	4	12	112	0.00	29.795 
09:10	29.7	29.7	29.7	91	27.4	3	7	112	0.00	29.795 
09:15	29.8	25.5	29.8	91	27.5	4	8	90	0.00	29.781 
09:20	29.8	29.8	29.8	91	27.5	3	8	90	0.00	29.781 
09:25	30.0	24.7	30.0	91	27.7	5	12	112	0.00	29.781 
09:30	30.0	30.0	30.0	91	27.7	3	9	112	0.00	29.778 
09:35	30.0	25.8	30.0	91	27.7	4	11	90	0.00	29.778 
09:40	30.0	25.8	30.0	91	27.7	4	10	112	0.00	29.778 
09:45	30.0	25.8	30.0	91	27.7	4	12	90	0.00	29.769 
09:50	30.1	25.9	30.1	91	27.8	4	10	90	0.00	29.769 
09:55	30.1	24.8	30.1	91	27.8	5	12	112	0.00	29.769 
10:00	30.1	24.0	30.1	91	27.8	6	14	90	0.00	29.753 
10:05	30.1	24.0	30.1	91	27.8	6	11	90	0.00	29.753 
10:10	30.3	26.1	30.3	91	28.0	4	10	112	0.00	29.753 
10:15	30.3	30.3	30.3	92	28.3	3	7	112	0.00	29.751 
10:20	30.4	30.4	30.4	92	28.4	3	9	90	0.00	29.751 
10:25	30.4	30.4	30.4	92	28.4	3	7	90	0.00	29.751 
10:30	30.6	30.6	30.6	92	28.6	3	7	90	0.00	29.739 
10:35	30.7	26.6	30.7	92	28.7	4	10	90	0.00	29.739 
10:40	30.7	25.5	30.7	92	28.7	5	13	112	0.00	29.739 
10:45	30.9	25.8	30.9	92	28.9	5	12	90	0.00	29.729 
10:50	30.9	26.8	30.9	92	28.9	4	10	90	0.00	29.729 
10:55	31.0	26.9	31.0	92	29.0	4	8	112	0.00	29.729 
11:00	31.0	26.9	31.0	92	29.0	4	11	90	0.00	29.732 
11:05	31.2	31.2	31.2	92	29.2	3	9	90	0.00	29.732 
11:10	31.2	27.2	31.2	92	29.2	4	13	90	0.00	29.732 
11:15	31.3	27.3	31.3	92	29.3	4	10	90	0.00	29.723 
11:20	31.3	26.3	31.3	92	29.3	5	10	90	0.00	29.723 
11:25	31.3	27.3	31.3	92	29.3	4	9	90	0.00	29.723 
11:30	31.5	27.5	31.5	92	29.4	4	10	90	0.00	29.715 
11:35	31.5	27.5	31.5	92	29.4	4	9	112	0.00	29.715 
11:40	31.6	31.6	31.6	92	29.5	3	6	90	0.00	29.715 
11:45	31.6	26.6	31.6	92	29.5	5	9	90	0.00	29.717 
11:50	31.6	26.6	31.6	92	29.5	5	10	90	0.00	29.717 
11:55	31.8	26.8	31.8	92	29.7	5	10	112	0.00	29.717 
12:00	31.8	26.8	31.8	92	29.7	5	9	90	0.00	29.709 
12:05	31.9	31.9	31.9	92	29.8	3	7	90	0.00	29.709 
12:10	31.9	28.0	31.9	93	30.1	4	11	90	0.00	29.709 
12:15	31.9	31.9	31.9	93	30.1	3	8	90	0.00	29.698 
12:20	31.9	31.9	31.9	93	30.1	3	10	90	0.00	29.698 
12:25	32.1	28.2	32.1	93	30.3	4	8	112	0.00	29.698 
12:30	32.1	32.1	32.1	93	30.3	3	8	90	0.00	29.693 
12:35	32.1	28.2	32.1	93	30.3	4	10	90	0.00	29.693 
12:40	32.2	32.2	32.2	93	30.4	3	10	90	0.00	29.693 
12:45	32.2	32.2	32.2	93	30.4	3	8	112	0.00	29.684 
12:50	32.4	28.5	32.4	93	30.6	4	12	90	0.00	29.684 
12:55	32.4	32.4	32.4	93	30.6	3	6	90	0.00	29.684 
13:00	32.4	28.5	32.4	94	30.9	4	9	90	0.00	29.689 
13:05	32.4	32.4	32.4	94	30.9	3	7	90	0.00	29.689 
13:10	32.5	28.7	32.5	94	31.0	4	7	90	0.00	29.689 
13:15	32.5	32.5	32.5	94	31.0	3	6	90	0.00	29.671 
13:20	32.5	28.7	32.5	94	31.0	4	9	90	0.00	29.671 
13:25	32.7	28.9	32.7	94	31.2	4	7	90	0.00	29.671 
13:30	32.7	28.9	32.7	94	31.2	4	11	90	0.00	29.674 
13:35	32.7	28.9	32.7	94	31.2	4	9	90	0.00	29.674 
13:40	32.8	29.0	32.8	94	31.3	4	7	90	0.00	29.674 
13:45	32.8	32.8	32.8	94	31.3	3	7	90	0.00	29.666 
13:50	32.9	32.9	32.9	94	31.4	2	6	90	0.00	29.666 
13:55	32.9	32.9	32.9	94	31.4	2	6	90	0.00	29.666 
14:00	32.9	29.1	32.9	94	31.4	4	11	90	0.00	29.646 
14:05	33.1	29.3	33.1	95	31.8	4	7	90	0.00	29.646 
14:10	33.2	28.5	33.2	95	31.9	5	12	90	0.00	29.646 
14:15	33.2	29.5	33.2	95	31.9	4	10	90	0.00	29.627 
14:20	33.4	29.7	33.4	95	32.1	4	9	112	0.00	29.627 
14:25	33.5	29.8	33.5	95	32.2	4	9	90	0.00	29.627 
14:30	33.5	33.5	33.5	95	32.2	3	6	90	0.00	29.610 
14:35	33.7	33.7	33.7	95	32.4	3	7	90	0.01	29.610 
14:40	33.8	33.8	33.8	95	32.5	3	11	90	0.00	29.610 
14:45	33.8	33.8	33.8	95	32.5	3	6	90	0.00	29.590 
14:50	34.0	34.0	34.0	95	32.7	2	7	90	0.00	29.590 
14:55	34.0	34.0	34.0	95	32.7	1	4	90	0.01	29.590 
15:00	34.0	34.0	34.0	95	32.7	2	5	90	0.00	29.569 
15:05	34.0	34.0	34.0	95	32.7	2	7	90	0.00	29.569 
15:10	34.1	34.1	34.1	95	32.8	0	2	90	0.01	29.569 
15:15	34.1	34.1	34.1	95	32.8	0	1	90	0.00	29.615 
15:20	34.3	34.3	34.3	95	33.0	0	2	90	0.00	29.615 
15:25	34.3	34.3	34.3	95	33.0	0	2	90	0.01	29.615 
15:30	34.4	34.4	34.4	95	33.1	0	1	90	0.00	29.614 
15:35	34.4	34.4	34.4	95	33.1	0	1	90	0.00	29.614 
15:40	34.3	34.3	34.3	95	33.0	0	2	90	0.00	29.614 
15:45	34.3	34.3	34.3	95	33.0	0	1	90	0.00	29.603 
15:50	34.3	34.3	34.3	95	33.0	0	1	90	0.01	29.603 
15:55	34.3	34.3	34.3	95	33.0	0	1	90	0.00	29.603 
16:00	34.3	34.3	34.3	95	33.0	0	0	---	0.00	29.599 
16:05	34.4	34.4	34.4	95	33.1	0	2	90	0.00	29.599 
16:10	34.4	34.4	34.4	95	33.1	0	1	90	0.00	29.599 
16:15	34.6	34.6	34.6	95	33.3	0	1	90	0.00	29.600 
16:20	34.6	34.6	34.6	95	33.3	0	0	---	0.00	29.600 
16:25	34.7	34.7	34.7	95	33.4	0	1	90	0.00	29.600 
16:30	34.7	34.7	34.7	95	33.4	0	1	90	0.00	29.596 
16:35	34.7	34.7	34.7	95	33.4	0	1	90	0.00	29.596 
16:40	34.9	34.9	34.9	95	33.6	0	0	---	0.00	29.596 
16:45	34.7	34.7	34.7	95	33.4	0	0	---	0.00	29.602 
16:50	34.7	34.7	34.7	95	33.4	0	1	90	0.00	29.602 
16:55	34.9	34.9	34.9	95	33.6	0	2	90	0.00	29.602 
17:00	34.9	34.9	34.9	95	33.6	0	2	90	0.01	29.599 
17:05	35.0	35.0	35.0	95	33.7	0	1	90	0.00	29.599 
17:10	35.2	35.2	35.2	96	34.2	0	2	90	0.00	29.599 
17:15	35.3	35.3	35.3	96	34.3	0	1	90	0.00	29.594 
17:20	35.5	35.5	35.5	96	34.5	0	1	90	0.00	29.594 
17:25	35.6	35.6	35.6	96	34.6	0	2	90	0.00	29.594 
17:30	35.6	35.6	35.6	96	34.6	1	3	90	0.00	29.598 
17:35	35.8	35.8	35.8	96	34.8	1	3	248	0.00	29.598 
17:40	35.8	35.8	35.8	96	34.8	1	3	248	0.00	29.598 
17:45	35.8	35.8	35.8	96	34.8	2	5	248	0.00	29.607 
17:50	35.9	35.9	35.9	96	34.9	1	4	248	0.00	29.607 
17:55	35.9	35.9	35.9	96	34.9	2	5	248	0.00	29.607 
18:00	36.0	36.0	36.0	96	35.0	3	9	248	0.01	29.613 
18:05	36.0	36.0	36.0	96	35.0	3	6	248	0.00	29.613 
18:10	36.2	36.2	36.2	96	35.2	2	7	248	0.00	29.613 
18:15	36.2	36.2	36.2	96	35.2	3	7	248	0.00	29.622 
18:20	36.2	36.2	36.2	96	35.2	2	5	248	0.00	29.622 
18:25	36.3	36.3	36.3	96	35.3	2	6	248	0.00	29.622 
18:30	36.3	33.0	36.3	96	35.3	4	10	248	0.00	29.629 
18:35	36.3	33.0	36.3	96	35.3	4	11	248	0.00	29.629 
18:40	36.3	36.3	36.3	96	35.3	3	5	270	0.00	29.629 
18:45	36.3	36.3	36.3	96	35.3	2	6	248	0.00	29.628 
18:50	36.3	36.3	36.3	95	35.0	2	5	248	0.00	29.628 
18:55	36.3	36.3	36.3	95	35.0	3	6	248	0.00	29.628 
19:00	36.3	36.3	36.3	95	35.0	3	11	248	0.00	29.641 
19:05	36.3	36.3	36.3	95	35.0	2	7	248	0.00	29.641 
19:10	36.3	36.3	36.3	95	35.0	3	9	248	0.00	29.641 
19:15	36.2	36.2	36.2	95	34.9	2	5	270	0.00	29.644 
19:20	36.2	36.2	36.2	95	34.9	3	7	248	0.00	29.644 
19:25	36.0	36.0	36.0	95	34.7	3	7	248	0.00	29.644 
19:30	36.0	36.0	36.0	95	34.7	2	5	248	0.00	29.650 
19:35	35.9	35.9	35.9	95	34.6	3	9	270	0.00	29.650 
19:40	35.8	35.8	35.8	95	34.5	3	10	248	0.01	29.650 
19:45	35.6	35.6	35.6	94	34.0	3	9	248	0.00	29.661 
19:50	35.5	32.1	35.5	94	33.9	4	9	248	0.00	29.661 
19:55	35.3	35.3	35.3	94	33.7	3	6	248	0.00	29.661 
20:00	35.2	35.2	35.2	94	33.6	3	10	248	0.00	29.675 
20:05	35.0	35.0	35.0	94	33.5	3	7	248	0.00	29.675 
20:10	34.9	31.4	34.9	94	33.4	4	7	248	0.00	29.675 
20:15	34.7	34.7	34.7	94	33.2	3	10	248	0.00	29.688 
20:20	34.7	34.7	34.7	94	33.2	3	7	248	0.00	29.688 
20:25	34.6	31.1	34.6	93	32.8	4	10	248	0.00	29.688 
20:30	34.4	30.8	34.4	93	32.6	4	9	248	0.00	29.690 
20:35	34.4	34.4	34.4	93	32.6	3	6	248	0.00	29.690 
20:40	34.3	30.7	34.3	93	32.5	4	10	248	0.00	29.690 
20:45	34.3	34.3	34.3	93	32.5	3	6	248	0.00	29.704 
20:50	34.3	30.7	34.3	93	32.5	4	8	248	0.00	29.704 
20:55	34.3	34.3	34.3	92	32.2	3	6	248	0.00	29.704 
21:00	34.1	34.1	34.1	92	32.0	3	9	248	0.00	29.708 
21:05	34.1	34.1	34.1	92	32.0	3	6	248	0.00	29.708 
21:10	34.1	34.1	34.1	92	32.0	2	9	248	0.00	29.708 
21:15	34.1	34.1	34.1	92	32.0	3	6	248	0.00	29.710 
21:20	34.0	34.0	34.0	92	31.9	3	6	248	0.00	29.710 
21:25	34.1	34.1	34.1	92	32.0	3	9	248	0.00	29.710 
21:30	34.1	34.1	34.1	92	32.0	3	6	248	0.00	29.722 
21:35	34.1	34.1	34.1	92	32.0	3	6	248	0.00	29.722 
21:40	34.3	34.3	34.3	92	32.2	2	4	248	0.00	29.722 
21:45	34.3	34.3	34.3	92	32.2	2	6	248	0.00	29.721 
21:50	34.4	34.4	34.4	91	32.0	2	6	248	0.00	29.721 
21:55	34.4	34.4	34.4	91	32.0	1	3	248	0.00	29.721 
22:00	34.6	34.6	34.6	91	32.2	2	7	248	0.00	29.723 
22:05	34.6	34.6	34.6	91	32.2	2	4	248	0.00	29.723 
22:10	34.7	34.7	34.7	91	32.3	2	6	248	0.00	29.723 
22:15	34.7	34.7	34.7	91	32.3	2	5	248	0.00	29.721 
22:20	34.9	34.9	34.9	91	32.5	3	7	248	0.00	29.721 
22:25	34.9	34.9	34.9	91	32.5	3	8	248	0.00	29.721 
22:30	35.0	35.0	35.0	91	32.6	2	6	248	0.00	29.723 
22:35	35.0	35.0	35.0	90	32.4	2	7	248	0.00	29.723 
22:40	35.2	35.2	35.2	91	32.8	3	7	248	0.00	29.723 
22:45	35.2	35.2	35.2	90	32.6	3	7	248	0.00	29.728 
22:50	35.2	35.2	35.2	90	32.6	3	10	248	0.00	29.728 
22:55	35.2	31.8	35.2	90	32.6	4	11	248	0.00	29.728 
23:00	35.0	35.0	35.0	89	32.1	3	9	248	0.00	29.736 
23:05	34.7	31.2	34.7	88	31.5	4	10	270	0.00	29.736 
23:10	34.7	31.2	34.7	84	30.4	4	11	248	0.00	29.736 
23:15	34.7	34.7	34.7	82	29.8	3	11	248	0.00	29.732 
23:20	34.6	31.1	34.6	80	29.1	4	12	248	0.00	29.732 
23:25	34.6	34.6	34.6	79	28.8	3	6	248	0.00	29.732 
23:30	34.6	30.1	34.6	77	28.1	5	11	248	0.00	29.736 
23:35	34.4	30.8	34.4	76	27.6	4	9	248	0.00	29.736 
23:40	34.3	34.3	34.3	76	27.5	3	7	270	0.00	29.736 
23:45	34.1	34.1	34.1	76	27.3	3	12	248	0.00	29.739 
23:50	33.8	33.8	33.8	77	27.4	3	7	248	0.00	29.739 
23:55	33.7	33.7	33.7	77	27.3	3	6	248	0.00	29.739 

CoCoRaHS
IN-AL-39
A2 Web Hosting
Creative Commons License
GoDaddy
search engine by freefind advanced

loaded 2018-11-12 19:15:57 • last modified 2010-11-18 10:43:29
Privacy PolicyDisclaimer
• wx.awcolley.com is powered by PmWiki v.2002016 •
• all content (unless otherwise noted) © 2018 A W Colley